Time;durP1;ratioP1;P1;durP2;ratioP2;P2;SDS_P1;SDS_P2;PMS_P1;PMS_P2;Temp;Humidity;BMP_temperature;BMP_pressure;BME280_temperature;BME280_humidity;BME280_pressure;Samples;Min_cycle;Max_cycle;Signal;HPM_P1;HPM_P2
2020/12/15 00:00:27;;;;;;;89.42;40.38;;;;;;;0.97;85.99;100614.22;1829138;78;21174;-71
2020/12/15 00:02:55;;;;;;;96.10;44.63;;;;;;;0.98;85.99;100612.44;1829131;78;21178;-71
2020/12/15 00:05:22;;;;;;;97.17;47.98;;;;;;;0.92;85.98;100613.67;1829253;78;21551;-70
2020/12/15 00:07:48;;;;;;;84.75;42.70;;;;;;;0.86;86.03;100611.94;1828660;78;21256;-71
2020/12/15 00:10:14;;;;;;;91.55;42.13;;;;;;;0.79;86.05;100610.66;1807866;78;21153;-70
2020/12/15 00:12:41;;;;;;;87.82;42.45;;;;;;;0.74;86.05;100608.84;1796658;79;21119;-70
2020/12/15 00:15:09;;;;;;;92.55;43.42;;;;;;;0.67;86.01;100614.13;1796889;78;21138;-71
2020/12/15 00:17:35;;;;;;;91.97;43.08;;;;;;;0.62;86.03;100609.17;1797035;78;21570;-70
2020/12/15 00:20:02;;;;;;;98.75;51.28;;;;;;;0.59;86.03;100598.04;1796749;79;21191;-70
2020/12/15 00:22:28;;;;;;;86.80;42.55;;;;;;;0.58;86.05;100606.84;1798115;78;21118;-70
2020/12/15 00:24:55;;;;;;;88.05;43.55;;;;;;;0.57;86.04;100602.06;1828963;78;21125;-70
2020/12/15 00:27:21;;;;;;;86.78;44.95;;;;;;;0.53;86.03;100605.83;1828722;78;21150;-70
2020/12/15 00:29:47;;;;;;;80.77;40.58;;;;;;;0.50;86.04;100601.63;1829054;78;21130;-71
2020/12/15 00:32:14;;;;;;;84.07;43.95;;;;;;;0.50;86.06;100609.50;1830327;78;21626;-71
2020/12/15 00:34:40;;;;;;;84.47;42.73;;;;;;;0.52;86.06;100609.88;1829015;77;21139;-70
2020/12/15 00:37:08;;;;;;;87.25;42.85;;;;;;;0.47;86.08;100605.77;1828696;77;21146;-70
2020/12/15 00:39:34;;;;;;;94.42;45.33;;;;;;;0.43;86.08;100598.20;1828953;78;21174;-70
2020/12/15 00:42:01;;;;;;;94.25;46.40;;;;;;;0.39;86.10;100597.56;1809630;78;21131;-70
2020/12/15 00:44:27;;;;;;;96.05;46.75;;;;;;;0.38;86.09;100593.74;1812965;78;21256;-71
2020/12/15 00:46:53;;;;;;;125.00;52.20;;;;;;;0.39;86.10;100592.78;1827247;78;21171;-70
2020/12/15 00:49:20;;;;;;;197.25;82.55;;;;;;;0.40;86.11;100586.59;1826818;78;21175;-70
2020/12/15 00:51:48;;;;;;;105.97;47.73;;;;;;;0.40;86.08;100582.66;1811306;78;21164;-70
2020/12/15 00:54:15;;;;;;;93.97;42.85;;;;;;;0.38;86.10;100582.78;1824170;78;21147;-70
2020/12/15 00:56:42;;;;;;;119.17;49.75;;;;;;;0.40;86.10;100586.13;1827045;78;21185;-70
2020/12/15 00:59:08;;;;;;;91.97;43.50;;;;;;;0.40;86.11;100586.13;1827116;78;21159;-70
2020/12/15 01:01:35;;;;;;;96.50;42.65;;;;;;;0.40;86.11;100586.13;1827057;78;21172;-70
2020/12/15 01:04:01;;;;;;;104.32;45.15;;;;;;;0.40;86.11;100582.20;1827253;78;21163;-71
2020/12/15 01:06:27;;;;;;;92.53;45.30;;;;;;;0.42;86.12;100584.23;1827033;78;21556;-71
2020/12/15 01:08:53;;;;;;;98.65;44.98;;;;;;;0.45;86.13;100588.00;1827204;77;21259;-70
2020/12/15 01:11:20;;;;;;;101.15;46.63;;;;;;;0.46;86.14;100584.41;1827052;78;21164;-71
2020/12/15 01:13:46;;;;;;;99.87;46.60;;;;;;;0.47;86.15;100583.48;1826969;78;21152;-70
2020/12/15 01:16:13;;;;;;;108.80;49.67;;;;;;;0.48;86.17;100587.79;1826984;78;21150;-70
2020/12/15 01:18:40;;;;;;;115.10;49.33;;;;;;;0.50;86.17;100597.70;1827184;78;21100;-71
2020/12/15 01:21:11;;;;;;;108.15;49.42;;;;;;;0.48;86.19;100587.79;1827161;78;21203;-70
2020/12/15 01:23:39;;;;;;;96.20;43.33;;;;;;;0.48;86.21;100587.79;1797967;78;21734;-70
2020/12/15 01:26:08;;;;;;;127.00;49.60;;;;;;;0.50;86.23;100585.89;1805131;78;21166;-71
2020/12/15 01:28:34;;;;;;;95.90;45.73;;;;;;;0.48;86.21;100575.98;1820866;78;21139;-70
2020/12/15 01:31:02;;;;;;;83.07;41.08;;;;;;;0.46;86.21;100570.45;1792746;79;21225;-70
2020/12/15 01:33:28;;;;;;;89.03;42.62;;;;;;;0.46;86.23;100570.45;1792675;80;22066;-70
2020/12/15 01:35:55;;;;;;;87.33;41.88;;;;;;;0.47;86.23;100563.80;1792453;78;21206;-70
2020/12/15 01:38:22;;;;;;;95.17;43.45;;;;;;;0.49;86.25;100565.84;1792707;80;21162;-70
2020/12/15 01:40:51;;;;;;;99.15;46.20;;;;;;;0.50;86.25;100561.44;1797282;78;21158;-71
2020/12/15 01:43:18;;;;;;;97.90;47.17;;;;;;;0.49;86.26;100556.66;1829039;78;21111;-70
2020/12/15 01:45:44;;;;;;;100.50;46.65;;;;;;;0.47;86.27;100550.69;1828812;78;21650;-70
2020/12/15 01:48:10;;;;;;;99.13;46.75;;;;;;;0.47;86.28;100556.40;1828926;77;21134;-70
2020/12/15 01:50:38;;;;;;;102.92;46.75;;;;;;;0.43;86.28;100555.76;1828753;78;21122;-71
2020/12/15 01:53:06;;;;;;;100.78;46.08;;;;;;;0.38;86.31;100549.16;1830502;78;21174;-70
2020/12/15 01:55:32;;;;;;;96.00;45.92;;;;;;;0.35;86.28;100540.99;1828810;77;21583;-71
2020/12/15 01:58:00;;;;;;;94.58;45.85;;;;;;;0.34;86.33;100545.89;1801644;78;21187;-70
2020/12/15 02:00:27;;;;;;;90.45;43.08;;;;;;;0.32;86.32;100537.27;1792663;80;21150;-70
2020/12/15 02:02:53;;;;;;;97.80;43.75;;;;;;;0.30;86.33;100536.55;1792560;80;21599;-70
2020/12/15 02:05:19;;;;;;;98.33;48.52;;;;;;;0.28;86.34;100537.09;1792608;80;21222;-70
2020/12/15 02:07:46;;;;;;;95.85;41.68;;;;;;;0.29;86.35;100540.09;1792574;80;21134;-71
2020/12/15 02:10:12;;;;;;;98.50;47.98;;;;;;;0.29;86.35;100538.78;1792571;80;22085;-71
2020/12/15 02:12:39;;;;;;;101.58;48.92;;;;;;;0.31;86.35;100538.70;1808343;77;21639;-70
2020/12/15 02:15:05;;;;;;;104.03;49.05;;;;;;;0.30;86.35;100545.72;1828729;78;21238;-70
2020/12/15 02:17:33;;;;;;;105.78;50.90;;;;;;;0.29;86.36;100548.43;1828615;78;21118;-71
2020/12/15 02:20:07;;;;;;;101.60;48.68;;;;;;;0.31;86.37;100549.19;1828544;78;21642;-70
2020/12/15 02:22:45;;;;;;;117.10;51.83;;;;;;;0.34;86.41;100557.70;1815490;77;22772;-70
2020/12/15 02:25:11;;;;;;;106.07;50.78;;;;;;;0.29;86.40;100561.08;1787900;80;21144;-71
2020/12/15 02:27:37;;;;;;;104.95;45.92;;;;;;;0.30;86.42;100566.70;1787720;80;21247;-71
2020/12/15 02:30:06;;;;;;;102.25;47.05;;;;;;;0.29;86.44;100561.54;1787938;80;21175;-70
2020/12/15 02:32:33;;;;;;;117.93;53.40;;;;;;;0.25;86.45;100558.28;1770881;80;21154;-70
2020/12/15 02:35:00;;;;;;;118.37;48.42;;;;;;;0.24;86.47;100561.02;1756503;81;21555;-70
2020/12/15 02:37:26;;;;;;;106.78;49.00;;;;;;;0.22;86.46;100562.42;1756560;80;21135;-70
2020/12/15 02:40:04;;;;;;;101.87;47.17;;;;;;;0.20;86.47;100557.76;1756402;81;21197;-70
2020/12/15 02:42:31;;;;;;;98.85;46.40;;;;;;;0.19;86.48;100546.89;1756682;81;21009;-70
2020/12/15 02:44:57;;;;;;;102.60;49.05;;;;;;;0.14;86.50;100533.23;1756307;81;21143;-70
2020/12/15 02:47:24;;;;;;;107.10;49.23;;;;;;;0.13;86.51;100538.13;1756654;80;21595;-70
2020/12/15 02:49:50;;;;;;;108.72;49.58;;;;;;;0.11;86.50;100537.36;1756702;81;21106;-70
2020/12/15 02:52:19;;;;;;;91.35;45.50;;;;;;;0.05;86.50;100544.33;1756675;81;21201;-70
2020/12/15 02:54:49;;;;;;;101.70;45.17;;;;;;;0.03;86.50;100546.69;1756365;81;21199;-70
2020/12/15 02:57:16;;;;;;;105.58;46.42;;;;;;;-0.04;86.52;100545.78;1756725;81;21115;-70
2020/12/15 02:59:45;;;;;;;98.47;42.78;;;;;;;-0.07;86.51;100538.59;1757520;80;21202;-70
2020/12/15 03:02:14;;;;;;;95.00;43.60;;;;;;;-0.09;86.52;100529.97;1756672;81;21143;-70
2020/12/15 03:04:40;;;;;;;98.05;45.55;;;;;;;-0.11;86.53;100526.62;1756405;80;21212;-70
2020/12/15 03:07:06;;;;;;;105.00;47.33;;;;;;;-0.10;86.52;100530.89;1756556;80;21157;-70
2020/12/15 03:09:32;;;;;;;99.72;48.83;;;;;;;-0.08;86.54;100523.80;1756399;81;21135;-70
2020/12/15 03:11:59;;;;;;;95.40;47.05;;;;;;;-0.04;86.55;100525.28;1755092;81;21183;-70
2020/12/15 03:14:25;;;;;;;100.42;48.55;;;;;;;-0.05;86.55;100518.34;1755088;80;21119;-70
2020/12/15 03:16:52;;;;;;;101.00;48.50;;;;;;;-0.03;86.54;100519.08;1756844;80;21201;-70
2020/12/15 03:19:18;;;;;;;98.80;51.08;;;;;;;-0.02;86.52;100519.45;1758930;80;21123;-70
2020/12/15 03:21:44;;;;;;;95.75;47.30;;;;;;;-0.04;86.53;100520.88;1759406;80;21127;-70
2020/12/15 03:24:10;;;;;;;98.35;45.73;;;;;;;-0.07;86.52;100517.63;1761876;81;21135;-71
2020/12/15 03:26:37;;;;;;;101.20;44.13;;;;;;;-0.08;86.52;100510.69;1762203;81;21241;-71
2020/12/15 03:29:03;;;;;;;88.07;40.85;;;;;;;-0.09;86.52;100503.76;1762349;81;21563;-70
2020/12/15 03:31:29;;;;;;;92.45;43.25;;;;;;;-0.10;86.52;100501.60;1762340;81;21147;-70
2020/12/15 03:33:55;;;;;;;93.47;45.63;;;;;;;-0.07;86.52;100509.75;1761844;81;21177;-70
2020/12/15 03:36:22;;;;;;;93.00;44.45;;;;;;;-0.04;86.53;100514.80;1761810;81;21160;-70
2020/12/15 03:38:48;;;;;;;101.62;47.08;;;;;;;-0.04;86.54;100508.24;1761899;80;21116;-70
2020/12/15 03:41:14;;;;;;;100.38;48.05;;;;;;;-0.06;86.55;100511.41;1761503;80;21139;-70
2020/12/15 03:43:41;;;;;;;105.43;48.80;;;;;;;-0.07;86.53;100507.14;1761845;81;21139;-70
2020/12/15 03:46:07;;;;;;;99.85;47.13;;;;;;;-0.09;86.55;100511.16;1761879;80;21568;-70
2020/12/15 03:48:33;;;;;;;94.25;43.87;;;;;;;-0.10;86.56;100516.02;1788726;80;21191;-70
2020/12/15 03:51:00;;;;;;;96.25;45.63;;;;;;;-0.10;86.58;100515.17;1774029;80;21619;-70
2020/12/15 03:53:26;;;;;;;88.00;42.08;;;;;;;-0.11;86.57;100514.83;1764095;80;21198;-70
2020/12/15 03:55:52;;;;;;;93.67;45.65;;;;;;;-0.11;86.60;100513.52;1761714;81;21194;-70
2020/12/15 03:58:18;;;;;;;99.40;44.03;;;;;;;-0.12;86.61;100511.36;1761693;81;21107;-70
2020/12/15 04:00:45;;;;;;;97.47;47.60;;;;;;;-0.09;86.59;100505.06;1761890;81;21131;-70
2020/12/15 04:03:11;;;;;;;100.15;47.40;;;;;;;-0.08;86.61;100504.98;1761173;81;21574;-70
2020/12/15 04:05:37;;;;;;;100.33;49.53;;;;;;;-0.06;86.63;100490.45;1761664;81;21234;-70
2020/12/15 04:08:04;;;;;;;105.15;49.40;;;;;;;-0.05;86.63;100498.69;1761748;81;21181;-70
2020/12/15 04:10:30;;;;;;;97.53;48.92;;;;;;;-0.09;86.64;100499.36;1761497;81;21166;-70
2020/12/15 04:12:56;;;;;;;103.30;48.70;;;;;;;-0.10;86.66;100512.55;1761857;81;21146;-70
2020/12/15 04:15:23;;;;;;;95.70;46.18;;;;;;;-0.12;86.65;100518.37;1761641;81;21115;-70
2020/12/15 04:17:49;;;;;;;96.15;47.17;;;;;;;-0.14;86.66;100511.91;1761849;81;21262;-70
2020/12/15 04:20:15;;;;;;;92.85;44.20;;;;;;;-0.14;86.66;100504.55;1761654;81;21186;-70
2020/12/15 04:22:42;;;;;;;92.82;42.43;;;;;;;-0.18;86.64;100497.35;1758258;80;21654;-71
2020/12/15 04:25:08;;;;;;;95.90;42.80;;;;;;;-0.21;86.66;100496.71;1755274;80;21155;-70
2020/12/15 04:27:34;;;;;;;92.15;48.20;;;;;;;-0.25;86.65;100488.20;1755667;81;21160;-70
2020/12/15 04:30:01;;;;;;;102.95;48.95;;;;;;;-0.26;86.66;100485.67;1756042;81;22132;-70
2020/12/15 04:32:27;;;;;;;109.60;55.23;;;;;;;-0.27;86.67;100487.91;1755756;80;21151;-70
2020/12/15 04:34:53;;;;;;;130.85;68.97;;;;;;;-0.27;86.69;100478.27;1755995;81;21159;-70
2020/12/15 04:37:19;;;;;;;130.00;68.42;;;;;;;-0.25;86.68;100482.13;1755903;80;21130;-70
2020/12/15 04:39:46;;;;;;;140.60;79.92;;;;;;;-0.24;86.68;100479.84;1759193;80;21568;-70
2020/12/15 04:42:13;;;;;;;136.80;73.10;;;;;;;-0.22;86.69;100477.98;1786646;80;21175;-70
2020/12/15 04:44:40;;;;;;;121.17;59.20;;;;;;;-0.21;86.68;100474.44;1786708;80;21187;-70
2020/12/15 04:47:27;;;;;;;113.65;53.55;;;;;;;-0.18;86.69;100467.68;1787124;80;21174;-70
2020/12/15 04:50:05;;;;;;;103.65;48.52;;;;;;;-0.20;86.70;100472.16;1778625;80;21193;-70
2020/12/15 04:52:56;;;;;;;113.68;47.23;;;;;;;-0.23;86.71;100477.61;1756040;81;21164;-70
2020/12/15 04:55:23;;;;;;;110.03;46.83;;;;;;;-0.23;86.71;100482.84;1755854;81;21996;-70
2020/12/15 04:57:50;;;;;;;86.53;39.78;;;;;;;-0.26;86.67;100481.27;1755948;81;21158;-70
2020/12/15 05:00:17;;;;;;;104.25;46.40;;;;;;;-0.25;86.67;100478.19;1755915;81;21529;-70
2020/12/15 05:02:48;;;;;;;87.05;39.13;;;;;;;-0.26;86.66;100473.41;1755764;81;21166;-70
2020/12/15 05:05:13;;;;;;;86.10;40.80;;;;;;;-0.25;86.63;100475.56;1755905;81;21123;-70
2020/12/15 05:07:44;;;;;;;93.03;42.38;;;;;;;-0.23;86.65;100481.53;1755591;81;22109;-71
2020/12/15 05:10:13;;;;;;;107.40;48.35;;;;;;;-0.24;86.65;100471.52;1755924;81;21106;-70
2020/12/15 05:12:40;;;;;;;66.95;32.35;;;;;;;-0.23;86.63;100461.42;1756099;81;21619;-70
2020/12/15 05:15:16;;;;;;;88.52;42.33;;;;;;;-0.21;86.63;100467.88;1755609;81;21670;-70
2020/12/15 05:17:44;;;;;;;87.55;41.83;;;;;;;-0.19;86.64;100472.08;1758861;80;21139;-70
2020/12/15 05:20:13;;;;;;;92.05;42.25;;;;;;;-0.17;86.64;100468.02;1787050;80;21281;-70
2020/12/15 05:22:47;;;;;;;86.97;42.95;;;;;;;-0.16;86.62;100478.89;1780418;80;22172;-70
2020/12/15 05:25:30;;;;;;;82.10;38.85;;;;;;;-0.15;86.65;100468.78;1786953;80;21123;-70
2020/12/15 05:27:59;;;;;;;83.50;41.18;;;;;;;-0.15;86.64;100474.03;1787072;79;21135;-70
2020/12/15 05:30:28;;;;;;;93.27;43.08;;;;;;;-0.16;86.66;100472.34;1756625;80;21115;-70
2020/12/15 05:32:58;;;;;;;92.00;43.60;;;;;;;-0.18;86.67;100465.91;1786828;79;21388;-70
2020/12/15 05:35:30;;;;;;;97.05;42.30;;;;;;;-0.18;86.65;100465.06;1786993;80;21175;-70
2020/12/15 05:37:57;;;;;;;93.82;46.40;;;;;;;-0.19;86.68;100464.68;1786738;80;21127;-70
2020/12/15 05:40:24;;;;;;;105.20;49.33;;;;;;;-0.21;86.67;100468.70;1786600;80;21203;-70
2020/12/15 05:43:00;;;;;;;90.87;43.40;;;;;;;-0.22;86.68;100474.05;1786971;80;22020;-70
2020/12/15 05:45:28;;;;;;;85.85;41.60;;;;;;;-0.22;86.68;100468.81;1787018;79;21205;-69
2020/12/15 05:48:06;;;;;;;85.07;39.42;;;;;;;-0.24;86.68;100473.30;1757564;80;21540;-70
2020/12/15 05:50:32;;;;;;;100.90;48.20;;;;;;;-0.25;86.67;100476.41;1755762;81;21541;-70
2020/12/15 05:53:01;;;;;;;104.67;49.73;;;;;;;-0.25;86.68;100475.11;1755816;81;21135;-70
2020/12/15 05:55:28;;;;;;;101.80;49.40;;;;;;;-0.27;86.67;100476.97;1755861;81;21639;-70
2020/12/15 05:57:54;;;;;;;105.83;49.20;;;;;;;-0.27;86.69;100477.43;1755677;81;21272;-70
2020/12/15 06:00:21;;;;;;;145.35;66.45;;;;;;;-0.27;86.69;100481.36;1725862;81;21170;-70
2020/12/15 06:03:00;;;;;;;107.65;51.40;;;;;;;-0.28;86.68;100474.47;1755740;81;21126;-70
2020/12/15 06:05:32;;;;;;;121.92;56.20;;;;;;;-0.30;86.69;100475.02;1754845;81;21151;-70
2020/12/15 06:08:01;;;;;;;110.35;51.77;;;;;;;-0.30;86.71;100485.49;1755816;81;21580;-70
2020/12/15 06:10:28;;;;;;;108.45;50.17;;;;;;;-0.32;86.69;100493.94;1755871;81;21175;-70
2020/12/15 06:12:58;;;;;;;96.32;47.67;;;;;;;-0.32;86.72;100490.00;1755879;80;21182;-69
2020/12/15 06:15:24;;;;;;;73.67;38.00;;;;;;;-0.32;86.71;100491.31;1777034;79;21604;-69
2020/12/15 06:17:59;;;;;;;97.80;44.63;;;;;;;-0.33;86.72;100485.23;1786996;80;21778;-70
2020/12/15 06:20:34;;;;;;;88.27;42.93;;;;;;;-0.32;86.73;100489.55;1786801;80;21155;-69
2020/12/15 06:23:01;;;;;;;86.22;40.48;;;;;;;-0.32;86.73;100494.78;1786710;80;22058;-70
2020/12/15 06:25:32;;;;;;;85.00;40.43;;;;;;;-0.29;86.74;100502.44;1784423;80;21155;-70
2020/12/15 06:28:01;;;;;;;87.45;42.10;;;;;;;-0.27;86.73;100502.32;1786924;80;21199;-69
2020/12/15 06:30:29;;;;;;;89.85;42.98;;;;;;;-0.26;86.74;100497.46;1786928;80;21127;-70
2020/12/15 06:33:04;;;;;;;84.92;42.67;;;;;;;-0.28;86.76;100501.48;1786954;79;21655;-70
2020/12/15 06:35:30;;;;;;;90.97;41.83;;;;;;;-0.26;86.76;100513.19;1787084;80;21256;-70
2020/12/15 06:37:56;;;;;;;95.00;43.23;;;;;;;-0.28;86.79;100526.37;1786853;80;21265;-70
2020/12/15 06:40:23;;;;;;;111.57;46.45;;;;;;;-0.26;86.77;100523.66;1787007;80;21112;-69
2020/12/15 06:42:53;;;;;;;113.68;48.23;;;;;;;-0.27;86.80;100521.97;1784611;80;21159;-69
2020/12/15 06:45:22;;;;;;;265.20;89.47;;;;;;;-0.30;86.81;100524.33;1786999;80;21175;-69
2020/12/15 06:47:58;;;;;;;183.35;64.03;;;;;;;-0.30;86.78;100528.72;1786940;80;22599;-69
2020/12/15 06:50:24;;;;;;;160.37;56.55;;;;;;;-0.33;86.77;100531.55;1785615;80;21187;-69
2020/12/15 06:52:50;;;;;;;331.45;114.95;;;;;;;-0.37;86.76;100526.13;1784781;80;21119;-71
2020/12/15 06:55:30;;;;;;;504.75;166.82;;;;;;;-0.40;86.77;100522.39;1786835;79;21564;-69
2020/12/15 06:58:00;;;;;;;253.32;95.03;;;;;;;-0.42;86.75;100529.52;1782056;80;24256;-70
2020/12/15 07:00:40;;;;;;;145.47;61.53;;;;;;;-0.45;86.76;100537.55;1773399;80;21212;-70
2020/12/15 07:03:07;;;;;;;;;;;;;;;-0.43;86.76;100535.69;1777797;80;21183;-70
2020/12/15 07:05:35;;;;;;;163.20;66.82;;;;;;;-0.45;86.78;100528.37;1755748;81;20567;-70
2020/12/15 07:08:07;;;;;;;179.10;71.35;;;;;;;-0.49;86.78;100526.91;1757862;79;21163;-70
2020/12/15 07:10:34;;;;;;;272.42;109.75;;;;;;;-0.52;86.79;100521.38;1726220;81;21160;-70
2020/12/15 07:13:00;;;;;;;227.25;100.27;;;;;;;-0.56;86.76;100528.59;1768661;80;21244;-69
2020/12/15 07:15:28;;;;;;;199.82;89.90;;;;;;;-0.56;86.77;100527.74;1786793;79;21206;-69
2020/12/15 07:17:55;;;;;;;150.12;69.75;;;;;;;-0.59;86.78;100527.47;1787037;80;21135;-70
2020/12/15 07:20:23;;;;;;;169.85;82.22;;;;;;;-0.60;86.76;100529.71;1787262;79;21131;-70
2020/12/15 07:22:49;;;;;;;126.78;59.38;;;;;;;-0.61;86.74;100528.05;1788869;80;21135;-70
2020/12/15 07:25:16;;;;;;;137.80;64.40;;;;;;;-0.57;86.78;100532.17;1793010;80;21186;-70
2020/12/15 07:27:43;;;;;;;114.22;58.48;;;;;;;-0.58;86.75;100535.72;1793013;80;21154;-70
2020/12/15 07:30:10;;;;;;;115.65;57.48;;;;;;;-0.52;86.77;100531.86;1792986;80;21130;-69
2020/12/15 07:32:39;;;;;;;111.45;57.30;;;;;;;-0.43;86.77;100530.45;1793012;80;21191;-70
2020/12/15 07:35:09;;;;;;;218.45;109.92;;;;;;;-0.38;86.78;100534.91;1793045;80;21123;-69
2020/12/15 07:37:42;;;;;;;225.45;106.90;;;;;;;-0.34;86.78;100537.25;1792829;80;21202;-69
2020/12/15 07:40:12;;;;;;;163.70;80.75;;;;;;;-0.31;86.79;100533.58;1792868;80;21135;-70
2020/12/15 07:42:39;;;;;;;110.72;51.20;;;;;;;-0.30;86.79;100536.58;1792501;80;21576;-69
2020/12/15 07:45:08;;;;;;;181.90;81.37;;;;;;;-0.31;86.80;100539.66;1793069;80;21579;-69
2020/12/15 07:47:41;;;;;;;141.03;68.67;;;;;;;-0.28;86.78;100534.72;1793064;80;21106;-70
2020/12/15 07:50:10;;;;;;;154.70;72.90;;;;;;;-0.29;86.76;100539.12;1790784;80;21213;-70
2020/12/15 07:52:38;;;;;;;139.15;69.58;;;;;;;-0.27;86.77;100532.45;1792026;80;21622;-70
2020/12/15 07:55:08;;;;;;;332.15;155.03;;;;;;;-0.24;86.76;100537.49;1792870;80;21198;-70
2020/12/15 07:57:37;;;;;;;194.40;85.55;;;;;;;-0.21;86.76;100546.50;1793094;80;21111;-70
2020/12/15 08:00:10;;;;;;;187.20;84.55;;;;;;;-0.18;86.76;100551.07;1792699;78;21159;-70
2020/12/15 08:02:37;;;;;;;148.50;72.62;;;;;;;-0.15;86.78;100547.41;1793045;80;21198;-70
2020/12/15 08:05:13;;;;;;;324.32;154.87;;;;;;;-0.14;86.77;100553.03;1790524;80;21204;-70
2020/12/15 08:07:49;;;;;;;338.95;121.10;;;;;;;-0.11;86.77;100554.14;1792766;80;22361;-70
2020/12/15 08:10:18;;;;;;;612.15;219.25;;;;;;;-0.08;86.78;100551.31;1792968;80;21580;-70
2020/12/15 08:12:44;;;;;;;706.92;271.20;;;;;;;-0.05;86.78;100551.11;1791975;80;21150;-70
2020/12/15 08:15:12;;;;;;;821.12;319.98;;;;;;;-0.03;86.78;100553.15;1793085;80;21280;-70
2020/12/15 08:17:39;;;;;;;338.30;120.15;;;;;;;-0.02;86.78;100549.59;1772439;79;21632;-70
2020/12/15 08:20:07;;;;;;;362.85;121.65;;;;;;;0.00;86.80;100545.92;1761540;80;21155;-70
2020/12/15 08:22:38;;;;;;;670.85;235.85;;;;;;;0.03;86.78;100547.53;1761203;81;21166;-70
2020/12/15 08:25:04;;;;;;;423.73;132.90;;;;;;;0.04;86.77;100557.05;1758773;81;21214;-70
2020/12/15 08:27:34;;;;;;;355.92;116.05;;;;;;;0.06;86.79;100560.44;1758916;80;21198;-70
2020/12/15 08:29:59;;;;;;;375.65;117.22;;;;;;;0.11;86.75;100562.27;1760736;80;21702;-70
2020/12/15 08:32:30;;;;;;;474.38;146.32;;;;;;;0.16;86.79;100564.14;1758886;80;21147;-70
2020/12/15 08:35:01;;;;;;;187.22;69.05;;;;;;;0.20;86.78;100557.76;1758708;80;21620;-69
2020/12/15 08:37:28;;;;;;;277.87;126.18;;;;;;;0.22;86.78;100553.70;1758958;81;21159;-70
2020/12/15 08:39:54;;;;;;;316.08;151.35;;;;;;;0.24;86.77;100564.48;1758736;80;21194;-70
2020/12/15 08:42:21;;;;;;;365.27;133.95;;;;;;;0.26;86.77;100556.50;1762594;80;21202;-70
2020/12/15 08:44:47;;;;;;;294.65;109.20;;;;;;;0.31;86.78;100550.03;1789814;78;21122;-70
2020/12/15 08:47:18;;;;;;;255.67;96.87;;;;;;;0.34;86.78;100551.14;1790250;80;21139;-70
2020/12/15 08:49:45;;;;;;;243.02;89.45;;;;;;;0.39;86.78;100550.34;1784055;80;21651;-70
2020/12/15 08:52:21;;;;;;;219.82;85.07;;;;;;;0.46;86.78;100544.22;1758742;80;21262;-70
2020/12/15 08:54:47;;;;;;;209.83;81.40;;;;;;;0.50;86.77;100537.36;1788743;79;21583;-70
2020/12/15 08:57:15;;;;;;;307.83;100.97;;;;;;;0.57;86.76;100545.66;1789957;80;21515;-70
2020/12/15 08:59:42;;;;;;;235.05;77.03;;;;;;;0.63;86.74;100540.48;1790259;80;21186;-70
2020/12/15 09:02:11;;;;;;;266.77;92.25;;;;;;;0.68;86.74;100527.88;1785585;80;21131;-70
2020/12/15 09:04:37;;;;;;;168.78;66.95;;;;;;;0.72;86.74;100533.29;1761964;80;22078;-70
2020/12/15 09:07:14;;;;;;;204.23;74.55;;;;;;;0.76;86.73;100537.39;1790022;80;21647;-70
2020/12/15 09:09:41;;;;;;;202.97;78.35;;;;;;;0.78;86.74;100540.73;1789554;80;21475;-70
2020/12/15 09:12:07;;;;;;;181.63;70.62;;;;;;;0.83;86.72;100551.78;1772629;80;21175;-70
2020/12/15 09:14:33;;;;;;;168.68;67.78;;;;;;;0.88;86.73;100554.94;1779978;80;21521;-70
2020/12/15 09:17:00;;;;;;;103.25;45.43;;;;;;;0.99;86.72;100543.20;1789933;78;21683;-70
2020/12/15 09:19:27;;;;;;;122.05;49.85;;;;;;;1.10;86.71;100540.69;1790027;80;21162;-70
2020/12/15 09:22:06;;;;;;;83.45;41.33;;;;;;;1.16;86.70;100538.94;1789907;80;21131;-70
2020/12/15 09:24:34;;;;;;;91.10;44.48;;;;;;;1.19;86.69;100538.75;1787747;80;21171;-70
2020/12/15 09:27:03;;;;;;;99.13;49.58;;;;;;;1.20;86.70;100539.56;1787239;80;21132;-70
2020/12/15 09:29:30;;;;;;;92.40;49.08;;;;;;;1.17;86.69;100534.06;1781158;78;22024;-70
2020/12/15 09:32:00;;;;;;;82.72;45.80;;;;;;;1.17;86.68;100532.74;1769505;80;21690;-70
2020/12/15 09:34:27;;;;;;;100.10;52.23;;;;;;;1.25;86.69;100529.59;1762327;80;21179;-70
2020/12/15 09:36:57;;;;;;;95.57;48.38;;;;;;;1.32;86.69;100536.94;1773574;80;21116;-70
2020/12/15 09:39:28;;;;;;;139.90;68.12;;;;;;;1.37;86.66;100531.36;1786735;80;21123;-70
2020/12/15 09:41:59;;;;;;;239.85;114.77;;;;;;;1.42;86.65;100540.59;1756876;80;21207;-70
2020/12/15 09:44:27;;;;;;;107.10;50.73;;;;;;;1.50;86.62;100549.25;1771531;80;21179;-70
2020/12/15 09:46:53;;;;;;;89.50;44.05;;;;;;;1.66;86.62;100552.92;1780674;78;21169;-71
2020/12/15 09:49:19;;;;;;;95.70;47.20;;;;;;;1.76;86.56;100549.52;1771342;80;21166;-71
2020/12/15 09:51:45;;;;;;;114.62;50.03;;;;;;;1.83;86.53;100547.32;1770358;80;21138;-70
2020/12/15 09:54:12;;;;;;;147.13;62.43;;;;;;;1.91;86.52;100534.44;1762124;80;22080;-70
2020/12/15 09:56:42;;;;;;;188.20;78.00;;;;;;;1.98;86.48;100531.72;1755948;80;21160;-70
2020/12/15 09:59:09;;;;;;;239.80;134.93;;;;;;;2.02;86.46;100530.55;1727519;81;21140;-71
2020/12/15 10:01:37;;;;;;;130.75;62.83;;;;;;;2.02;86.39;100531.87;1755855;80;21124;-70
2020/12/15 10:04:04;;;;;;;237.00;89.85;;;;;;;1.99;86.33;100529.47;1755921;81;21174;-70
2020/12/15 10:06:30;;;;;;;188.75;71.70;;;;;;;2.00;86.30;100527.21;1783178;80;21154;-71
2020/12/15 10:08:56;;;;;;;697.50;232.60;;;;;;;2.06;86.30;100521.97;1780083;80;21177;-71
2020/12/15 10:11:25;;;;;;;232.77;81.75;;;;;;;2.06;86.28;100511.44;1762946;80;21132;-71
2020/12/15 10:13:51;;;;;;;380.45;137.75;;;;;;;2.06;86.22;100503.08;1701292;83;21179;-70
2020/12/15 10:16:17;;;;;;;245.90;94.10;;;;;;;2.10;86.20;100503.22;1735862;81;21148;-70
2020/12/15 10:18:44;;;;;;;266.90;102.58;;;;;;;2.18;86.17;100506.60;1737054;81;21192;-71
2020/12/15 10:21:10;;;;;;;75.87;39.27;;;;;;;2.28;86.13;100516.80;1740231;81;21192;-71
2020/12/15 10:23:37;;;;;;;72.00;38.63;;;;;;;2.43;86.12;100522.21;1733942;81;21585;-71
2020/12/15 10:26:05;;;;;;;86.32;42.60;;;;;;;2.53;86.07;100528.48;1727704;81;21215;-70
2020/12/15 10:28:33;;;;;;;72.47;39.73;;;;;;;2.57;86.02;100526.46;1756072;81;21577;-71
2020/12/15 10:31:01;;;;;;;81.72;43.25;;;;;;;2.67;85.97;100524.81;1734393;81;22172;-70
2020/12/15 10:33:29;;;;;;;79.97;40.70;;;;;;;2.70;85.94;100528.52;1722625;81;21203;-70
2020/12/15 10:35:58;;;;;;;91.78;48.42;;;;;;;2.79;85.93;100533.07;1744584;80;21128;-70
2020/12/15 10:38:25;;;;;;;80.83;42.73;;;;;;;2.82;85.89;100513.08;1745740;80;21202;-71
2020/12/15 10:40:53;;;;;;;66.17;35.63;;;;;;;2.81;85.81;100523.28;1717354;81;21184;-70
2020/12/15 10:43:20;;;;;;;75.85;39.80;;;;;;;2.85;85.74;100528.17;1727152;81;21221;-70
2020/12/15 10:45:48;;;;;;;67.42;38.75;;;;;;;2.86;85.68;100529.02;1719346;82;21187;-70
2020/12/15 10:48:15;;;;;;;73.85;38.53;;;;;;;2.85;85.61;100540.53;1722806;81;21198;-70
2020/12/15 10:50:42;;;;;;;74.25;39.23;;;;;;;2.81;85.54;100539.92;1723707;81;21656;-70
2020/12/15 10:53:10;;;;;;;76.22;36.30;;;;;;;2.81;85.49;100521.97;1719975;81;21607;-70
2020/12/15 10:55:37;;;;;;;86.25;42.85;;;;;;;2.76;85.44;100517.52;1716123;81;21576;-70
2020/12/15 10:58:05;;;;;;;81.85;41.65;;;;;;;2.70;85.42;100510.94;1743133;81;21034;-71
2020/12/15 11:00:31;;;;;;;83.72;41.85;;;;;;;2.64;85.40;100513.20;1737279;81;21206;-70
2020/12/15 11:02:58;;;;;;;78.05;41.10;;;;;;;2.56;85.35;100513.77;1737268;81;21172;-71
2020/12/15 11:05:24;;;;;;;74.45;39.75;;;;;;;2.52;85.34;100513.64;1717853;81;21192;-71
2020/12/15 11:07:52;;;;;;;84.92;44.25;;;;;;;2.57;85.34;100517.25;1749632;81;21210;-71
2020/12/15 11:10:19;;;;;;;110.08;54.55;;;;;;;2.55;85.27;100513.88;1735430;81;21606;-71
2020/12/15 11:12:45;;;;;;;94.65;46.48;;;;;;;2.53;85.24;100514.83;1735434;81;21138;-71